McDermott, Ohio
Current Conditions -  °F | °C
As of 4:35 AM on Friday 28 Nov 2014 (Local Time) from KDWU Reporting Station
Overcast Overcast  
Wind Chill: 25°   Ceiling: 3700
Heat Index: 30°   Visibility: 10mi
Dew Point: 19°   Wind: 5mph
Humidity: 64%   Direction: 330°NNW
Pressure: 30.37"   Gusts: NA
Location:  38.84°N, 83.06°W
Report Text: KDWU 280935Z AUTO 33004KT 10SM FEW029 BKN037 OVC045 M01/M07 A3037 RMK AO1
Loading
Personal Weather Stations






























Interactive Weather Map New forecast layout! Learn more

10-Day Weather Forecast

Advertisements
Track Severe Weather on mobile